Time;durP1;ratioP1;P1;durP2;ratioP2;P2;SDS_P1;SDS_P2;PMS_P1;PMS_P2;Temp;Humidity;BMP_temperature;BMP_pressure;BME280_temperature;BME280_humidity;BME280_pressure;Samples;Min_cycle;Max_cycle;Signal;HPM_P1;HPM_P2
2022/01/29 07:58:42;;;;;;;36.92;26.90;;;;;;;7.06;100.00;102347.22;5288430;27;20391;-77
2022/01/29 08:01:14;;;;;;;37.53;27.60;;;;;;;7.09;100.00;102346.75;5278117;28;20039;-77
2022/01/29 08:03:50;;;;;;;36.17;29.20;;;;;;;7.13;100.00;102348.81;5278891;28;20498;-77
2022/01/29 08:06:23;;;;;;;37.90;27.67;;;;;;;7.17;100.00;102341.75;5280049;28;20029;-77
2022/01/29 08:08:54;;;;;;;33.90;26.52;;;;;;;7.21;100.00;102338.53;5279926;28;20021;-81
2022/01/29 08:11:25;;;;;;;32.88;26.38;;;;;;;7.27;100.00;102332.94;5279830;28;20074;-83
2022/01/29 08:13:57;;;;;;;33.30;26.85;;;;;;;7.32;100.00;102333.09;5280610;28;20035;-82
2022/01/29 08:16:28;;;;;;;31.60;24.77;;;;;;;7.37;100.00;102333.22;5272450;28;20067;-82
2022/01/29 08:18:59;;;;;;;31.15;24.70;;;;;;;7.43;100.00;102338.91;5271186;28;20488;-80
2022/01/29 08:21:31;;;;;;;33.15;25.08;;;;;;;7.48;100.00;102330.75;5268173;28;20024;-82
2022/01/29 08:24:11;;;;;;;26.63;22.15;;;;;;;7.60;100.00;102321.47;5281361;28;20032;-80
2022/01/29 08:26:42;;;;;;;31.50;23.65;;;;;;;7.56;100.00;102322.16;5278871;28;20056;-81
2022/01/29 08:29:13;;;;;;;28.42;24.02;;;;;;;7.61;100.00;102319.53;5275724;28;20120;-83
2022/01/29 08:31:45;;;;;;;30.00;24.38;;;;;;;7.68;100.00;102312.00;5279245;28;20108;-84
2022/01/29 08:34:16;;;;;;;29.23;23.65;;;;;;;7.73;100.00;102312.13;5277977;28;20021;-85
2022/01/29 08:36:48;;;;;;;27.40;22.35;;;;;;;7.93;100.00;102311.00;5279781;28;20068;-79
2022/01/29 08:39:20;;;;;;;29.80;23.38;;;;;;;7.87;100.00;102314.69;5278356;28;20135;-83
2022/01/29 08:41:51;;;;;;;28.55;22.95;;;;;;;7.92;100.00;102301.03;5273308;28;20040;-78
2022/01/29 08:44:23;;;;;;;25.63;20.60;;;;;;;8.12;100.00;102304.31;5258504;28;20025;-82
2022/01/29 08:46:54;;;;;;;23.98;21.13;;;;;;;7.99;100.00;102304.53;5295491;28;20035;-76
2022/01/29 08:49:26;;;;;;;22.92;20.40;;;;;;;8.06;100.00;102299.75;5280467;28;20021;-75
2022/01/29 08:51:57;;;;;;;25.23;21.40;;;;;;;8.11;100.00;102288.81;5276006;28;20059;-77
2022/01/29 08:54:34;;;;;;;23.92;21.40;;;;;;;8.11;100.00;102296.28;5277270;28;20024;-74
2022/01/29 08:57:08;;;;;;;27.38;22.52;;;;;;;8.14;100.00;102301.31;5277359;28;20410;-76
2022/01/29 08:59:40;;;;;;;24.30;21.67;;;;;;;8.16;100.00;102297.25;5278617;28;20024;-81
2022/01/29 09:02:11;;;;;;;24.05;20.73;;;;;;;8.16;100.00;102296.41;5279204;28;20075;-80
2022/01/29 09:04:43;;;;;;;24.35;20.13;;;;;;;8.16;100.00;102297.25;5277956;28;20020;-79
2022/01/29 09:07:14;;;;;;;24.33;20.70;;;;;;;8.28;100.00;102303.63;5276878;28;20044;-81
2022/01/29 09:09:46;;;;;;;24.25;18.88;;;;;;;8.27;100.00;102301.09;5264832;28;20031;-83
2022/01/29 09:12:17;;;;;;;23.25;18.98;;;;;;;8.25;100.00;102283.91;5262195;28;20107;-79
2022/01/29 09:14:48;;;;;;;21.58;19.27;;;;;;;8.28;100.00;102287.03;5263447;28;20028;-76
2022/01/29 09:17:20;;;;;;;21.90;19.25;;;;;;;8.40;100.00;102291.75;5263714;28;20025;-79
2022/01/29 09:19:51;;;;;;;20.77;17.67;;;;;;;8.33;100.00;102278.00;5264403;28;20139;-75
2022/01/29 09:22:22;;;;;;;20.35;17.45;;;;;;;8.31;100.00;102280.19;5263831;28;20461;-78
2022/01/29 09:24:54;;;;;;;20.90;18.30;;;;;;;8.33;100.00;102280.78;5262649;28;20026;-80
2022/01/29 09:27:25;;;;;;;22.48;17.75;;;;;;;8.39;100.00;102279.88;5263468;28;20021;-83
2022/01/29 09:29:56;;;;;;;21.20;17.73;;;;;;;8.43;100.00;102278.28;5259368;28;20033;-82
2022/01/29 09:32:27;;;;;;;19.60;17.50;;;;;;;8.44;100.00;102291.03;5264413;28;20033;-82
2022/01/29 09:34:59;;;;;;;21.33;17.80;;;;;;;8.46;100.00;102279.72;5263541;28;20036;-82
2022/01/29 09:37:30;;;;;;;18.42;16.52;;;;;;;8.46;100.00;102285.25;5253383;28;20430;-81
2022/01/29 09:40:05;;;;;;;22.23;16.58;;;;;;;8.50;100.00;102280.94;5264764;28;20044;-82
2022/01/29 09:42:36;;;;;;;14.77;13.17;;;;;;;8.52;100.00;102287.06;5257218;28;20509;-80
2022/01/29 09:45:09;;;;;;;19.33;16.90;;;;;;;8.53;100.00;102291.50;5263126;28;20033;-82
2022/01/29 09:47:42;;;;;;;18.70;15.75;;;;;;;8.71;100.00;102287.78;5263471;28;20437;-76
2022/01/29 09:50:16;;;;;;;19.05;16.95;;;;;;;8.64;100.00;102281.53;5261407;28;20026;-74
2022/01/29 09:52:48;;;;;;;21.55;17.52;;;;;;;8.69;100.00;102288.03;5252914;28;20029;-73
2022/01/29 09:55:19;;;;;;;21.13;16.48;;;;;;;8.64;100.00;102276.84;5257290;28;20028;-75
2022/01/29 09:57:51;;;;;;;18.83;15.93;;;;;;;8.68;100.00;102289.09;5255092;28;20043;-75
2022/01/29 10:00:23;;;;;;;19.42;16.25;;;;;;;8.70;100.00;102288.88;5258806;28;20375;-73
2022/01/29 10:03:09;;;;;;;20.02;16.38;;;;;;;8.76;100.00;102285.13;5260751;28;20033;-79
2022/01/29 10:05:44;;;;;;;20.65;15.85;;;;;;;8.77;100.00;102283.19;5262925;28;20135;-78
2022/01/29 10:08:17;;;;;;;19.27;17.23;;;;;;;8.78;100.00;102282.97;5262571;28;20120;-76
2022/01/29 10:10:54;;;;;;;20.48;16.25;;;;;;;8.87;100.00;102280.66;5261885;28;20029;-76
2022/01/29 10:13:36;;;;;;;21.35;16.38;;;;;;;8.85;100.00;102285.59;5263357;28;20033;-75
2022/01/29 10:16:14;;;;;;;18.75;16.20;;;;;;;8.87;100.00;102281.50;5262278;28;20096;-69
2022/01/29 10:19:27;;;;;;;18.67;16.65;;;;;;;8.90;100.00;102271.88;5262294;28;20021;-69
2022/01/29 10:21:58;;;;;;;18.98;16.15;;;;;;;8.94;100.00;102267.53;5257972;28;20034;-71
2022/01/29 10:24:30;;;;;;;17.52;15.65;;;;;;;8.93;100.00;102263.09;5241647;28;20040;-70
2022/01/29 10:27:05;;;;;;;22.83;18.77;;;;;;;8.93;100.00;102268.63;5262265;28;20029;-71
2022/01/29 10:29:36;;;;;;;;;;;;;;;8.98;100.00;102259.59;5263109;28;20082;-70
2022/01/29 10:32:08;;;;;;;17.92;16.05;;;;;;;8.96;100.00;102257.06;5260895;28;19920;-70
2022/01/29 10:34:39;;;;;;;19.10;16.67;;;;;;;8.97;100.00;102242.13;5262057;28;20578;-71
2022/01/29 10:37:18;;;;;;;18.45;16.40;;;;;;;8.99;100.00;102237.19;5261863;28;20025;-70
2022/01/29 10:39:54;;;;;;;17.85;15.88;;;;;;;9.06;100.00;102237.91;5252237;28;20124;-70
2022/01/29 10:42:27;;;;;;;;;;;;;;;9.09;100.00;102231.88;5262234;28;20087;-71
2022/01/29 10:45:02;;;;;;;18.83;16.80;;;;;;;9.09;100.00;102239.34;5261735;28;19924;-69
2022/01/29 10:47:53;;;;;;;17.13;15.27;;;;;;;9.18;99.36;102234.25;5260008;28;20411;-72
2022/01/29 10:50:25;;;;;;;18.77;16.98;;;;;;;9.17;99.73;102218.72;5259861;28;20637;-72
2022/01/29 10:52:56;;;;;;;16.33;14.40;;;;;;;9.19;98.31;102227.63;5258746;28;20431;-72
2022/01/29 10:55:28;;;;;;;16.40;14.63;;;;;;;9.20;99.01;102232.06;5247881;28;20053;-73
2022/01/29 10:57:59;;;;;;;15.68;14.07;;;;;;;9.22;98.16;102222.44;5253566;28;20041;-74
2022/01/29 11:00:31;;;;;;;15.75;14.15;;;;;;;9.23;98.07;102223.25;5258497;28;20130;-71
2022/01/29 11:03:02;;;;;;;20.50;14.48;;;;;;;9.25;98.62;102221.09;5262245;28;20025;-70
2022/01/29 11:05:36;;;;;;;19.52;13.43;;;;;;;9.28;97.45;102207.63;5261905;28;20037;-70
2022/01/29 11:08:07;;;;;;;13.75;12.35;;;;;;;9.31;96.73;102198.81;5260261;28;20028;-70
2022/01/29 11:10:39;;;;;;;13.68;12.40;;;;;;;9.35;96.46;102204.69;5258617;28;20041;-74
2022/01/29 11:13:10;;;;;;;13.00;11.80;;;;;;;9.39;96.83;102200.34;5260312;28;20029;-74
2022/01/29 11:15:41;;;;;;;12.30;10.82;;;;;;;9.40;95.65;102182.63;5261697;28;20383;-73
2022/01/29 11:18:13;;;;;;;11.85;10.75;;;;;;;9.42;95.58;102197.06;5260778;28;20051;-71
2022/01/29 11:20:44;;;;;;;12.18;10.95;;;;;;;9.44;95.82;102197.66;5260621;28;20738;-74
2022/01/29 11:23:16;;;;;;;11.45;10.35;;;;;;;9.44;95.26;102191.28;5260808;28;20112;-69
2022/01/29 11:25:53;;;;;;;14.35;12.90;;;;;;;9.48;94.76;102190.50;5250092;28;20108;-70
2022/01/29 11:28:29;;;;;;;18.77;16.75;;;;;;;9.51;94.46;102173.44;5260932;28;20051;-70
2022/01/29 11:31:16;;;;;;;9.88;8.95;;;;;;;9.52;94.73;102177.88;5253657;28;20028;-69
2022/01/29 11:33:57;;;;;;;10.68;9.57;;;;;;;9.57;93.81;102175.19;5241076;28;20480;-70
2022/01/29 11:36:46;;;;;;;9.43;8.52;;;;;;;9.61;93.99;102161.66;5250370;28;20746;-69
2022/01/29 11:39:25;;;;;;;10.65;9.65;;;;;;;9.65;93.34;102164.78;5251727;28;20026;-72
2022/01/29 11:42:14;;;;;;;10.73;8.50;;;;;;;9.70;93.67;102153.78;5246001;28;20068;-71
2022/01/29 11:44:46;;;;;;;10.18;8.43;;;;;;;9.74;93.03;102141.09;5255423;28;20032;-73
2022/01/29 11:47:27;;;;;;;9.38;8.30;;;;;;;9.78;93.73;102139.50;5261737;28;20504;-71
2022/01/29 11:50:20;;;;;;;9.57;7.80;;;;;;;9.81;92.94;102119.59;5253610;28;20037;-73
2022/01/29 11:52:57;;;;;;;9.48;7.72;;;;;;;9.85;92.51;102122.72;5262235;28;20025;-76
2022/01/29 11:55:52;;;;;;;9.32;7.43;;;;;;;9.88;92.87;102116.66;5261152;28;20045;-72
2022/01/29 11:58:27;;;;;;;9.60;8.63;;;;;;;9.91;92.69;102114.22;5249254;28;20070;-71
2022/01/29 12:01:01;;;;;;;8.23;7.18;;;;;;;9.96;91.87;102116.22;5258510;28;20392;-71
2022/01/29 12:03:32;;;;;;;7.53;6.70;;;;;;;9.98;91.10;102103.78;5260134;28;20063;-72
2022/01/29 12:06:30;;;;;;;6.45;5.75;;;;;;;10.04;91.09;102098.31;5261403;28;20029;-71
2022/01/29 12:09:06;;;;;;;8.07;5.93;;;;;;;10.06;90.22;102087.81;5261360;28;20472;-71
2022/01/29 12:11:41;;;;;;;6.28;5.65;;;;;;;10.06;90.59;102096.97;5259698;28;20078;-71
2022/01/29 12:14:12;;;;;;;6.70;5.97;;;;;;;10.06;90.81;102104.44;5259718;28;20028;-71
2022/01/29 12:16:55;;;;;;;8.18;7.20;;;;;;;10.06;90.50;102088.66;5259889;28;21141;-70
2022/01/29 12:19:44;;;;;;;8.35;5.93;;;;;;;10.07;90.11;102084.78;5260491;28;20087;-70
2022/01/29 12:22:20;;;;;;;6.68;5.97;;;;;;;10.08;90.50;102088.41;5247462;28;20025;-75
2022/01/29 12:24:55;;;;;;;8.40;6.10;;;;;;;10.09;90.51;102090.06;5260565;28;20376;-72
2022/01/29 12:28:04;;;;;;;6.60;6.00;;;;;;;10.11;90.75;102091.50;5259694;28;20040;-75
2022/01/29 12:30:40;;;;;;;6.28;5.18;;;;;;;10.08;91.04;102093.94;5228980;28;20116;-73
2022/01/29 12:33:13;;;;;;;9.02;5.93;;;;;;;10.08;90.39;102094.78;5245000;28;20105;-75
2022/01/29 12:35:58;;;;;;;6.50;5.38;;;;;;;10.15;90.87;102095.44;5243137;28;20116;-75
2022/01/29 12:38:32;;;;;;;5.18;4.57;;;;;;;10.14;90.19;102095.69;5260238;28;20044;-77
2022/01/29 12:41:06;;;;;;;4.90;4.35;;;;;;;10.19;90.42;102093.81;5261362;28;20486;-79
2022/01/29 12:43:53;;;;;;;5.78;5.28;;;;;;;10.13;90.12;102086.53;5261500;28;20527;-75
2022/01/29 12:46:27;;;;;;;7.20;5.10;;;;;;;10.14;90.01;102073.50;5263871;28;20072;-74
2022/01/29 12:49:07;;;;;;;5.63;4.80;;;;;;;10.17;90.53;102050.81;5260794;28;20026;-76
2022/01/29 12:51:50;;;;;;;5.55;4.47;;;;;;;10.19;89.92;102043.09;5262241;28;20108;-79
2022/01/29 12:54:24;;;;;;;5.90;4.90;;;;;;;10.21;90.02;102040.91;5263605;28;20032;-77
2022/01/29 12:56:56;;;;;;;4.93;4.50;;;;;;;10.25;89.93;102042.03;5264451;28;20048;-78
2022/01/29 12:59:28;;;;;;;4.70;4.30;;;;;;;10.28;89.59;102046.25;5265702;28;20032;-77
2022/01/29 13:02:03;;;;;;;5.65;5.15;;;;;;;10.26;89.42;102032.66;5265017;28;20104;-77
2022/01/29 13:04:34;;;;;;;5.60;4.97;;;;;;;10.30;89.47;102044.91;5264799;28;20040;-75
2022/01/29 13:07:07;;;;;;;6.30;5.53;;;;;;;10.29;89.90;102051.56;5263329;28;20025;-75
2022/01/29 13:09:39;;;;;;;5.40;4.78;;;;;;;10.32;89.17;102037.19;5264067;28;20025;-75
2022/01/29 13:12:12;;;;;;;7.75;6.63;;;;;;;10.34;89.03;102026.66;5264424;28;20055;-77
2022/01/29 13:14:43;;;;;;;7.88;6.05;;;;;;;10.33;88.63;102026.91;5263872;28;20361;-77
2022/01/29 13:17:16;;;;;;;6.30;5.57;;;;;;;10.35;89.72;102022.78;5264486;28;20028;-80
2022/01/29 13:19:50;;;;;;;5.72;5.13;;;;;;;10.37;88.50;102014.22;5263657;28;20024;-75
2022/01/29 13:22:26;;;;;;;7.25;6.47;;;;;;;10.37;88.92;102028.91;5262688;28;20025;-75
2022/01/29 13:25:03;;;;;;;5.50;5.00;;;;;;;10.40;89.08;102022.84;5259431;28;20120;-73
2022/01/29 13:27:37;;;;;;;7.07;5.55;;;;;;;10.42;89.11;102034.53;5247024;28;20022;-73
2022/01/29 13:30:21;;;;;;;6.25;5.72;;;;;;;10.45;88.93;102045.09;5257226;28;20102;-74
2022/01/29 13:33:11;;;;;;;6.90;6.28;;;;;;;10.45;88.40;102039.53;5264337;28;20096;-74
2022/01/29 13:35:49;;;;;;;6.40;5.80;;;;;;;10.43;88.65;102033.44;5263393;28;20537;-71
2022/01/29 13:38:27;;;;;;;8.30;6.07;;;;;;;10.44;88.82;102018.47;5263876;28;20024;-69
2022/01/29 13:41:01;;;;;;;6.97;6.32;;;;;;;10.50;89.06;102029.63;5262168;28;20029;-70
2022/01/29 13:43:41;;;;;;;7.30;6.60;;;;;;;10.49;88.68;102019.63;5263654;28;20032;-75
2022/01/29 13:46:25;;;;;;;10.65;9.65;;;;;;;10.50;88.93;102030.44;5262789;28;20374;-73
2022/01/29 13:48:57;;;;;;;6.40;5.90;;;;;;;10.57;88.19;102021.94;5262898;28;20056;-72
2022/01/29 13:51:47;;;;;;;7.05;5.95;;;;;;;10.58;87.95;102027.22;5263776;28;20021;-71
2022/01/29 13:54:22;;;;;;;7.40;5.65;;;;;;;10.59;87.54;102003.09;5263313;28;20033;-71
2022/01/29 13:57:05;;;;;;;9.38;8.55;;;;;;;10.62;87.69;102014.50;5256599;28;20048;-69
2022/01/29 13:59:37;;;;;;;6.88;6.22;;;;;;;10.59;88.41;102042.75;5242800;28;20071;-72
2022/01/29 14:02:09;;;;;;;7.75;6.38;;;;;;;10.59;87.44;102028.06;5255718;28;20044;-69
2022/01/29 14:04:42;;;;;;;6.95;6.25;;;;;;;10.60;87.47;102038.88;5263276;28;20036;-70
2022/01/29 14:07:19;;;;;;;7.25;6.00;;;;;;;10.60;87.97;102033.34;5263335;28;20387;-71
2022/01/29 14:09:58;;;;;;;6.10;5.60;;;;;;;10.63;88.25;102040.28;5262298;28;20504;-71
2022/01/29 14:12:31;;;;;;;9.20;5.97;;;;;;;10.67;87.70;102044.22;5263082;28;20081;-74
2022/01/29 14:15:11;;;;;;;7.93;5.35;;;;;;;10.70;87.50;102043.72;5251733;28;20025;-73
2022/01/29 14:17:42;;;;;;;7.30;5.05;;;;;;;10.68;87.80;102048.66;5262539;28;20025;-71
2022/01/29 14:20:19;;;;;;;9.05;5.55;;;;;;;10.70;87.25;102067.84;5263348;28;20025;-70
2022/01/29 14:22:50;;;;;;;6.07;5.22;;;;;;;10.74;87.43;102052.38;5262187;28;20444;-71
2022/01/29 14:25:22;;;;;;;6.63;6.03;;;;;;;10.73;87.48;102048.72;5262117;28;20029;-71
2022/01/29 14:27:53;;;;;;;5.65;4.35;;;;;;;10.75;87.30;102057.63;5255298;28;20036;-70
2022/01/29 14:30:25;;;;;;;6.75;4.93;;;;;;;10.77;86.35;102077.63;5257510;28;20040;-73
2022/01/29 14:32:56;;;;;;;5.43;4.20;;;;;;;10.77;86.34;102066.53;5243122;28;20025;-72
2022/01/29 14:35:28;;;;;;;7.40;5.10;;;;;;;10.81;86.80;102094.59;5262699;28;20106;-73
2022/01/29 14:37:59;;;;;;;6.72;3.83;;;;;;;10.86;86.63;102095.50;5261541;28;20055;-71
2022/01/29 14:40:30;;;;;;;5.85;4.05;;;;;;;10.86;85.62;102076.09;5249245;28;20029;-68
2022/01/29 14:43:02;;;;;;;6.35;3.67;;;;;;;10.90;85.46;102081.09;5262525;28;20029;-70
2022/01/29 14:45:33;;;;;;;3.97;3.20;;;;;;;10.90;85.47;102070.84;5262196;28;20103;-70
2022/01/29 14:48:06;;;;;;;5.95;2.95;;;;;;;10.87;85.45;102036.13;5262191;28;20087;-70
2022/01/29 14:50:37;;;;;;;5.00;2.60;;;;;;;10.92;85.04;102038.09;5251770;28;20034;-69
2022/01/29 14:53:08;;;;;;;5.47;2.80;;;;;;;10.93;85.19;102059.19;5255511;28;20025;-69
2022/01/29 14:55:39;;;;;;;4.57;2.78;;;;;;;10.93;84.77;102061.97;5256886;28;20097;-69
2022/01/29 14:58:11;;;;;;;6.65;2.72;;;;;;;10.96;84.57;102068.94;5262037;28;20053;-71
2022/01/29 15:00:45;;;;;;;4.00;3.13;;;;;;;10.93;85.32;102047.25;5260844;28;20044;-71
2022/01/29 15:03:16;;;;;;;4.53;2.60;;;;;;;10.94;84.95;102043.38;5246604;28;20061;-70
2022/01/29 15:05:48;;;;;;;5.25;2.83;;;;;;;10.96;84.83;102055.06;5260257;28;20509;-70
2022/01/29 15:08:19;;;;;;;3.88;2.50;;;;;;;10.94;84.05;102062.81;5261927;28;20100;-70
2022/01/29 15:10:51;;;;;;;6.45;3.17;;;;;;;10.96;84.73;102066.16;5261562;28;20119;-68
2022/01/29 15:13:25;;;;;;;4.35;2.42;;;;;;;10.96;84.38;102055.91;5261269;28;20056;-69
2022/01/29 15:15:56;;;;;;;5.30;3.42;;;;;;;10.95;84.47;102067.28;5262652;28;20021;-69
2022/01/29 15:18:30;;;;;;;3.17;2.33;;;;;;;10.98;84.40;102073.13;5261960;28;20055;-69
2022/01/29 15:21:03;;;;;;;3.60;2.17;;;;;;;10.98;84.88;102058.41;5261344;28;20379;-70
2022/01/29 15:23:34;;;;;;;4.68;2.63;;;;;;;10.95;84.71;102054.22;5261784;28;20532;-71
2022/01/29 15:26:06;;;;;;;4.72;2.20;;;;;;;10.95;84.69;102053.41;5262024;28;20112;-70
2022/01/29 15:28:37;;;;;;;5.32;2.30;;;;;;;10.97;84.54;102049.25;5244382;28;20021;-70
2022/01/29 15:31:09;;;;;;;5.35;2.20;;;;;;;10.99;83.49;102058.16;5246469;28;20104;-70
2022/01/29 15:33:40;;;;;;;4.68;2.50;;;;;;;11.00;83.97;102039.56;5261086;28;20507;-70
2022/01/29 15:36:12;;;;;;;5.13;2.00;;;;;;;11.00;84.83;102034.84;5261550;28;20049;-70
2022/01/29 15:38:43;;;;;;;3.97;1.88;;;;;;;10.99;84.17;102041.50;5257374;28;20041;-71
2022/01/29 15:41:15;;;;;;;4.07;2.30;;;;;;;10.99;84.08;102024.00;5260852;28;20025;-72
2022/01/29 15:43:46;;;;;;;6.20;2.08;;;;;;;11.00;83.29;102042.34;5256790;28;20029;-71
2022/01/29 15:46:19;;;;;;;3.35;2.30;;;;;;;11.00;84.01;102040.41;5261595;28;20475;-72
2022/01/29 15:48:51;;;;;;;2.38;2.00;;;;;;;11.00;84.32;102039.56;5260615;28;20031;-71
2022/01/29 15:51:22;;;;;;;6.68;2.70;;;;;;;10.98;84.29;102039.00;5260834;28;20020;-69
2022/01/29 15:53:53;;;;;;;5.93;2.17;;;;;;;10.95;84.19;102032.03;5261366;28;20032;-70
2022/01/29 15:56:25;;;;;;;5.50;2.70;;;;;;;10.96;83.68;102035.63;5259928;28;20029;-71
2022/01/29 15:58:56;;;;;;;2.42;1.83;;;;;;;10.91;84.01;102039.19;5259245;28;20491;-71
2022/01/29 16:01:29;;;;;;;4.88;2.08;;;;;;;10.88;84.60;102039.72;5260465;28;20075;-72
2022/01/29 16:04:00;;;;;;;3.72;2.03;;;;;;;10.85;84.48;102034.69;5260915;28;20025;-73
2022/01/29 16:06:34;;;;;;;2.58;2.20;;;;;;;10.82;85.05;102030.50;5261492;28;20112;-73
2022/01/29 16:09:05;;;;;;;3.58;2.08;;;;;;;10.79;84.55;102039.38;5261181;28;20025;-78
2022/01/29 16:11:37;;;;;;;4.80;2.25;;;;;;;10.78;85.50;102051.56;5244119;28;20025;-78
2022/01/29 16:14:08;;;;;;;4.07;2.28;;;;;;;10.75;84.24;102040.16;5257804;28;20025;-78
2022/01/29 16:16:40;;;;;;;6.38;2.00;;;;;;;10.77;84.63;102049.88;5260582;28;20480;-77
2022/01/29 16:19:11;;;;;;;3.78;2.08;;;;;;;10.75;84.81;102049.31;5263498;28;20379;-77
2022/01/29 16:21:42;;;;;;;4.47;2.10;;;;;;;10.74;84.32;102055.97;5265584;28;20021;-79
2022/01/29 16:24:14;;;;;;;4.30;1.90;;;;;;;10.71;84.53;102039.84;5265474;28;20025;-78
2022/01/29 16:26:46;;;;;;;3.50;1.90;;;;;;;10.73;85.04;102057.06;5261741;28;20039;-78
2022/01/29 16:29:17;;;;;;;3.15;2.08;;;;;;;10.73;84.93;102065.38;5254806;28;20033;-79
2022/01/29 16:31:48;;;;;;;6.63;3.30;;;;;;;10.72;84.49;102060.94;5264567;28;20060;-78
2022/01/29 16:34:20;;;;;;;5.32;3.70;;;;;;;10.72;84.67;102069.25;5264804;28;20099;-77
2022/01/29 16:36:51;;;;;;;19.17;12.85;;;;;;;10.75;85.13;102074.28;5264856;28;20033;-77
2022/01/29 16:39:23;;;;;;;8.73;3.28;;;;;;;10.73;84.48;102059.81;5264899;28;20391;-75
2022/01/29 16:41:55;;;;;;;5.93;2.08;;;;;;;10.72;83.82;102069.25;5250751;28;20021;-78
2022/01/29 16:44:26;;;;;;;3.05;1.83;;;;;;;10.73;84.58;102075.63;5264652;28;20025;-77
2022/01/29 16:46:57;;;;;;;8.45;2.20;;;;;;;10.68;84.48;102072.81;5262552;28;20475;-77
2022/01/29 16:49:29;;;;;;;3.95;2.60;;;;;;;10.68;84.65;102083.91;5265341;28;20490;-78
2022/01/29 16:52:00;;;;;;;8.55;2.10;;;;;;;10.66;85.07;102084.19;5264272;28;20525;-77
2022/01/29 16:54:31;;;;;;;5.78;2.30;;;;;;;10.66;85.25;102070.31;5265497;28;20033;-76
2022/01/29 16:57:03;;;;;;;4.72;1.98;;;;;;;10.68;84.51;102079.19;5264945;28;20045;-77
2022/01/29 16:59:34;;;;;;;5.28;2.47;;;;;;;10.74;85.16;102085.66;5263247;28;20025;-77
2022/01/29 17:02:05;;;;;;;6.53;2.08;;;;;;;10.71;84.85;102088.94;5246519;28;20421;-76
2022/01/29 17:04:37;;;;;;;5.55;2.65;;;;;;;10.71;84.86;102100.91;5244976;28;20084;-76
2022/01/29 17:07:08;;;;;;;5.45;2.13;;;;;;;10.70;84.77;102104.75;5243309;28;20031;-77
2022/01/29 17:09:39;;;;;;;8.23;2.40;;;;;;;10.68;85.33;102100.56;5262680;28;20021;-77
2022/01/29 17:12:11;;;;;;;6.72;2.30;;;;;;;10.68;85.23;102100.56;5257732;28;20402;-79
2022/01/29 17:14:42;;;;;;;7.88;2.38;;;;;;;10.65;85.02;102107.47;5264745;28;20100;-78
2022/01/29 17:17:13;;;;;;;5.85;2.20;;;;;;;10.63;85.38;102104.97;5264258;28;20025;-79
2022/01/29 17:19:45;;;;;;;6.68;2.28;;;;;;;10.66;85.52;102134.13;5252675;28;20084;-79
2022/01/29 17:22:17;;;;;;;8.60;2.67;;;;;;;10.70;84.79;102121.41;5260958;28;20025;-77
2022/01/29 17:24:49;;;;;;;4.85;2.10;;;;;;;10.65;85.43;102121.34;5264724;28;20035;-77
2022/01/29 17:27:20;;;;;;;7.43;3.25;;;;;;;10.67;85.35;102127.47;5263441;28;20112;-77
2022/01/29 17:29:52;;;;;;;5.10;2.35;;;;;;;10.68;85.11;102131.91;5264180;28;20483;-77
